Main page
METAR-TAF:

METAR-TAF

Airports :

Sliač, Slovakia

Sliač Airport

latitude: 48-38-17N, longitude: 019-08-03E, elevation: 318 m

Current weather observation

The report was made 19 minutes ago, at 09:30 UTC
Calm wind
Temperature -1°C
Humidity 74%
Pressure 1023 hPa
Visibility: 5000 m
Overcast at a height of 3300 ft
mist

METAR: LZSL 230930Z 00000KT 5000 BR OVC033 M01/M05 Q1023

Time: 10:49 (09:49 UTC)

Forecast

The report was made 1 hour and 49 minutes ago, at 08:00 UTC
Forecast valid from 23 at 09 UTC to 23 at 18 UTC
Wind 3 kt from the East
Visibility: 5000 m
Broken clouds at a height of 3000 ft
mist
Temporary
from 23 at 09 UTC to 23 at 12 UTC
Wind 2 kt from variable directions
Visibility: 3000 m
Scattered clouds at a height of 1500 ft
Overcast at a height of 2500 ft
light snow

TAF: LZSL 230800Z 2309/2318 08003KT 5000 BR BKN030 TEMPO 2309/2312 VRB02KT 3000 -SN SCT015 OVC025

Weather observations and forecasts of more than 4000 airports (METAR and TAF reports).

The available stations are represented by yellow and red dots on the map.

Hover mouse over dot to see the name of the station.

Then click to see weather observations and forecasts.

To change the map : click on the green buttons with a black cross to zoom in, on the green button with a dash to zoom out, or on the green arrows for adjacent maps.


METAR-TAF: